| time (UTC) | temp C | wind direction | speed KPH | gust KPH | rain 1hr cm | rain 24hr cm | rain mn cm | humidity % | barometer mb |
| 20260503200454 | 20 | 212 | 9.7 | 17.7 | 0.00 | 0.00 | 0.00 | 35 | 1003.6 |
| 20260503195445 | 20 | 231 | 9.7 | 17.7 | 0.00 | 0.00 | 0.00 | 36 | 1003.8 |
| 20260503194445 | 20 | 249 | 9.7 | 14.5 | 0.00 | 0.00 | 0.00 | 36 | 1003.8 |
| 20260503193519 | 20 | 218 | 9.7 | 19.3 | 0.00 | 0.00 | 0.00 | 35 | 1003.9 |
| 20260503192552 | 20 | 228 | 8.0 | 16.1 | 0.00 | 0.00 | 0.00 | 36 | 1004.0 |
| 20260503191503 | 20 | 224 | 6.4 | 16.1 | 0.00 | 0.00 | 0.00 | 37 | 1004.1 |
| 20260503190456 | 19 | 199 | 9.7 | 17.7 | 0.00 | 0.00 | 0.00 | 37 | 1004.2 |
| 20260503185505 | 19 | 213 | 8.0 | 17.7 | 0.00 | 0.00 | 0.00 | 37 | 1004.3 |
| 20260503184443 | 19 | 260 | 8.0 | 16.1 | 0.00 | 0.00 | 0.00 | 37 | 1004.5 |
| 20260503183516 | 19 | 207 | 8.0 | 19.3 | 0.00 | 0.00 | 0.00 | 37 | 1004.7 |
| 20260503182514 | 18 | 214 | 6.4 | 14.5 | 0.00 | 0.00 | 0.00 | 38 | 1004.9 |
| 20260503181524 | 18 | 308 | 8.0 | 14.5 | 0.00 | 0.00 | 0.00 | 39 | 1005.0 |
| 20260503180455 | 18 | 255 | 8.0 | 17.7 | 0.00 | 0.00 | 0.00 | 38 | 1005.1 |
| 20260503175447 | 18 | 237 | 11.3 | 19.3 | 0.00 | 0.00 | 0.00 | 38 | 1005.3 |
| 20260503174444 | 18 | 213 | 9.7 | 20.9 | 0.00 | 0.00 | 0.00 | 39 | 1005.5 |
| 20260503173517 | 18 | 224 | 9.7 | 19.3 | 0.00 | 0.00 | 0.00 | 38 | 1005.6 |
| 20260503172514 | 18 | 230 | 9.7 | 27.4 | 0.00 | 0.00 | 0.00 | 41 | 1005.7 |
| 20260503171506 | 17 | 218 | 11.3 | 19.3 | 0.00 | 0.00 | 0.00 | 40 | 1005.8 |
| 20260503170457 | 17 | 202 | 9.7 | 19.3 | 0.00 | 0.00 | 0.00 | 44 | 1006.0 |
| 20260503150455 | 14 | 240 | 8.0 | 16.1 | 0.00 | 0.00 | 0.00 | 52 | 1007.6 |
| 20260503130534 | 11 | 240 | 6.4 | 14.5 | 0.00 | 0.00 | 0.00 | 53 | 1008.3 |
| 20260503110457 | 10 | 246 | 4.8 | 9.7 | 0.00 | 0.00 | 0.00 | 53 | 1008.7 |
| 20260503081505 | 10 | 228 | 4.8 | 9.7 | 0.00 | 0.00 | 0.00 | 48 | 1010.1 |
| 20260503080456 | 10 | 220 | 4.8 | 11.3 | 0.00 | 0.00 | 0.00 | 48 | 1010.1 |
| 20260503072515 | 10 | 215 | 4.8 | 11.3 | 0.00 | 0.00 | 0.00 | 49 | 1010.2 |
| 20260503071507 | 10 | 213 | 4.8 | 11.3 | 0.00 | 0.00 | 0.00 | 50 | 1010.2 |
| 20260503070458 | 10 | 206 | 6.4 | 11.3 | 0.00 | 0.00 | 0.00 | 50 | 1010.4 |
| 20260503054446 | 10 | 206 | 4.8 | 11.3 | 0.00 | 0.00 | 0.00 | 51 | 1011.2 |
| 20260503053446 | 10 | 203 | 4.8 | 8.0 | 0.00 | 0.00 | 0.00 | 50 | 1011.3 |
| 20260503052517 | 10 | 195 | 4.8 | 9.7 | 0.00 | 0.00 | 0.00 | 50 | 1011.4 |
| 20260503051508 | 10 | 205 | 3.2 | 9.7 | 0.00 | 0.00 | 0.00 | 51 | 1011.5 |
| 20260503050456 | 10 | 207 | 3.2 | 8.0 | 0.00 | 0.00 | 0.00 | 52 | 1011.6 |
| 20260503045447 | 10 | 215 | 3.2 | 4.8 | 0.00 | 0.00 | 0.00 | 52 | 1011.7 |
| 20260503044508 | 10 | 216 | 3.2 | 6.4 | 0.00 | 0.00 | 0.00 | 51 | 1011.7 |
| 20260503043447 | 9 | 211 | 4.8 | 8.0 | 0.00 | 0.00 | 0.00 | 51 | 1011.7 |
| 20260503042518 | 8 | 210 | 3.2 | 6.4 | 0.00 | 0.00 | 0.00 | 54 | 1011.9 |
| 20260503041506 | 8 | 222 | 3.2 | 6.4 | 0.00 | 0.00 | 0.00 | 53 | 1012.0 |
| 20260503040458 | 8 | 218 | 3.2 | 8.0 | 0.00 | 0.00 | 0.00 | 55 | 1012.1 |
| 20260503035448 | 8 | 227 | 3.2 | 4.8 | 0.00 | 0.00 | 0.00 | 55 | 1012.1 |
| 20260503034445 | 8 | 224 | 3.2 | 8.0 | 0.00 | 0.00 | 0.00 | 55 | 1012.2 |
| 20260503033446 | 8 | 232 | 1.6 | 4.8 | 0.00 | 0.00 | 0.00 | 52 | 1012.3 |
| 20260503032515 | 8 | 190 | 3.2 | 6.4 | 0.00 | 0.00 | 0.00 | 49 | 1012.3 |
| 20260503031527 | 8 | 182 | 1.6 | 6.4 | 0.00 | 0.00 | 0.00 | 48 | 1012.4 |
| 20260503030519 | 8 | 201 | 3.2 | 4.8 | 0.00 | 0.00 | 0.00 | 48 | 1012.5 |
| 20260503025449 | 9 | 186 | 1.6 | 4.8 | 0.00 | 0.00 | 0.00 | 48 | 1012.6 |
| 20260503024446 | 9 | 197 | 1.6 | 3.2 | 0.00 | 0.00 | 0.00 | 46 | 1012.6 |
| 20260503023446 | 9 | 197 | 1.6 | 3.2 | 0.00 | 0.00 | 0.00 | 45 | 1012.6 |
| 20260503022516 | 10 | 212 | 1.6 | 4.8 | 0.00 | 0.00 | 0.00 | 45 | 1012.6 |
| 20260503021508 | 10 | 187 | 0.0 | 3.2 | 0.00 | 0.00 | 0.00 | 44 | 1012.6 |
| 20260503020519 | 10 | 190 | 1.6 | 3.2 | 0.00 | 0.00 | 0.00 | 45 | 1012.6 |
| 20260503015446 | 10 | 194 | 1.6 | 3.2 | 0.00 | 0.00 | 0.00 | 45 | 1012.5 |
| 20260503014527 | 10 | 194 | 1.6 | 3.2 | 0.00 | 0.00 | 0.00 | 45 | 1012.5 |
| 20260503013447 | 11 | 196 | 3.2 | 4.8 | 0.00 | 0.00 | 0.00 | 43 | 1012.4 |
| 20260503012538 | 11 | 217 | 0.0 | 1.6 | 0.00 | 0.00 | 0.00 | 41 | 1012.4 |
| 20260503011507 | 12 | 237 | 1.6 | 3.2 | 0.00 | 0.00 | 0.00 | 38 | 1012.3 |
| 20260503010457 | 12 | 280 | 1.6 | 4.8 | 0.00 | 0.00 | 0.00 | 36 | 1012.3 |
| 20260503005448 | 12 | 274 | 3.2 | 4.8 | 0.00 | 0.00 | 0.00 | 35 | 1012.3 |
| 20260503004445 | 13 | 277 | 3.2 | 8.0 | 0.00 | 0.00 | 0.00 | 33 | 1012.3 |
| 20260503003446 | 13 | 277 | 4.8 | 8.0 | 0.00 | 0.00 | 0.00 | 31 | 1012.3 |
| 20260503002518 | 15 | 271 | 4.8 | 9.7 | 0.00 | 0.00 | 0.00 | 30 | 1012.2 |
| 20260503001529 | 15 | 267 | 4.8 | 8.0 | 0.00 | 0.00 | 0.00 | 26 | 1012.2 |
| 20260503000500 | 15 | 266 | 4.8 | 8.0 | 0.00 | 0.00 | 0.00 | 28 | 1012.4 |
| 20260502235452 | 15 | 278 | 4.8 | 9.7 | 0.00 | 0.00 | 0.00 | 29 | 1012.4 |
| 20260502234449 | 15 | 273 | 4.8 | 11.3 | 0.00 | 0.00 | 0.00 | 27 | 1012.5 |
| 20260502233509 | 15 | 256 | 3.2 | 6.4 | 0.00 | 0.00 | 0.00 | 27 | 1012.6 |
| 20260502232536 | 15 | 275 | 6.4 | 12.9 | 0.00 | 0.00 | 0.00 | 26 | 1012.6 |
| 20260502231510 | 15 | 266 | 6.4 | 11.3 | 0.00 | 0.00 | 0.00 | 22 | 1012.6 |
| 20260502230502 | 15 | 276 | 8.0 | 14.5 | 0.00 | 0.00 | 0.00 | 23 | 1012.6 |
| 20260502225450 | 15 | 283 | 6.4 | 12.9 | 0.00 | 0.00 | 0.00 | 21 | 1012.8 |
| 20260502224450 | 15 | 294 | 8.0 | 14.5 | 0.00 | 0.00 | 0.00 | 24 | 1012.8 |
| 20260502223450 | 15 | 264 | 4.8 | 11.3 | 0.00 | 0.00 | 0.00 | 23 | 1013.0 |
| 20260502222517 | 15 | 297 | 6.4 | 11.3 | 0.00 | 0.00 | 0.00 | 25 | 1013.0 |
| 20260502221511 | 15 | 286 | 8.0 | 14.5 | 0.00 | 0.00 | 0.00 | 23 | 1013.0 |
| 20260502220502 | 15 | 300 | 4.8 | 8.0 | 0.00 | 0.00 | 0.00 | 23 | 1013.1 |
| 20260502215450 | 15 | 282 | 8.0 | 17.7 | 0.00 | 0.00 | 0.00 | 23 | 1013.2 |
| 20260502214452 | 15 | 282 | 6.4 | 11.3 | 0.00 | 0.00 | 0.00 | 22 | 1013.3 |
| 20260502213451 | 16 | 275 | 11.3 | 20.9 | 0.00 | 0.00 | 0.00 | 21 | 1013.4 |
| 20260502212451 | 15 | 302 | 8.0 | 14.5 | 0.00 | 0.00 | 0.00 | 22 | 1013.5 |
| 20260502211530 | 15 | 271 | 4.8 | 9.7 | 0.00 | 0.00 | 0.00 | 22 | 1013.7 |
| 20260502210500 | 15 | 296 | 4.8 | 11.3 | 0.00 | 0.00 | 0.00 | 23 | 1013.8 |
| 20260502205451 | 15 | 295 | 4.8 | 8.0 | 0.00 | 0.00 | 0.00 | 22 | 1014.0 |
| 20260502204449 | 15 | 15 | 1.6 | 4.8 | 0.00 | 0.00 | 0.00 | 22 | 1014.1 |
| 20260502203448 | 15 | 343 | 3.2 | 6.4 | 0.00 | 0.00 | 0.00 | 23 | 1014.4 |
| 20260502202449 | 14 | 338 | 3.2 | 12.9 | 0.00 | 0.00 | 0.00 | 24 | 1014.5 |
| 20260502201511 | 14 | 34 | 4.8 | 11.3 | 0.00 | 0.00 | 0.00 | 24 | 1014.6 |